createdAt,value
2018-12-25T00:00:40.854Z,103052.23
2018-12-25T00:03:11.001Z,103048.55
2018-12-25T00:05:40.812Z,103056.07
2018-12-25T00:08:10.916Z,103055.61
2018-12-25T00:10:40.912Z,103058.61
2018-12-25T00:13:10.794Z,103054.30
2018-12-25T00:15:41.117Z,103059.12
2018-12-25T00:18:10.930Z,103057.22
2018-12-25T00:20:40.787Z,103046.17
2018-12-25T00:23:10.864Z,103053.72
2018-12-25T00:25:41.071Z,103046.67
2018-12-25T00:28:10.919Z,103055.19
2018-12-25T00:30:40.986Z,103052.48
2018-12-25T00:33:11.035Z,103045.02
2018-12-25T00:35:40.952Z,103051.66
2018-12-25T00:38:29.781Z,103051.62
2018-12-25T00:40:59.210Z,103052.93
2018-12-25T00:43:28.692Z,103042.77
2018-12-25T00:45:58.223Z,103038.38
2018-12-25T00:48:27.681Z,103044.53
2018-12-25T00:50:57.072Z,103038.80
2018-12-25T00:53:26.568Z,103036.63
2018-12-25T00:55:55.969Z,103041.03
2018-12-25T00:58:25.457Z,103045.10
2018-12-25T01:00:54.992Z,103042.48
2018-12-25T01:03:24.441Z,103035.47
2018-12-25T01:05:53.833Z,103036.42
2018-12-25T01:08:23.394Z,103035.58
2018-12-25T01:10:52.843Z,103028.41
2018-12-25T01:13:22.246Z,103022.25
2018-12-25T01:15:51.898Z,103020.17
2018-12-25T01:18:21.312Z,103022.72
2018-12-25T01:21:09.647Z,103014.71
2018-12-25T01:23:39.118Z,103029.29
2018-12-25T01:26:08.561Z,103031.68
2018-12-25T01:28:38.115Z,103028.55
2018-12-25T01:31:07.553Z,103023.23
2018-12-25T01:33:37.072Z,103021.89
2018-12-25T01:36:06.544Z,103018.75
2018-12-25T01:38:35.994Z,103013.64
2018-12-25T01:41:05.400Z,103000.91
2018-12-25T01:43:34.938Z,103015.60
2018-12-25T01:46:04.356Z,103006.74
2018-12-25T01:48:33.787Z,103013.44
2018-12-25T01:51:03.241Z,103020.02
2018-12-25T01:53:32.614Z,103016.47
2018-12-25T01:56:02.032Z,103020.06
2018-12-25T01:58:31.580Z,103019.11
2018-12-25T02:01:00.999Z,103011.16
2018-12-25T02:03:30.432Z,103007.67
2018-12-25T02:05:59.885Z,102992.68
2018-12-25T02:08:29.293Z,102999.73
2018-12-25T02:10:58.724Z,102998.91
2018-12-25T02:13:28.172Z,102996.36
2018-12-25T02:15:57.588Z,102994.19
2018-12-25T02:18:26.991Z,102996.30
2018-12-25T02:20:56.532Z,102999.41
2018-12-25T02:26:14.552Z,103010.36
2018-12-25T02:28:43.957Z,103016.05
2018-12-25T02:31:13.372Z,103017.78
2018-12-25T02:33:43.253Z,103019.60
2018-12-25T02:36:12.821Z,103017.39
2018-12-25T02:38:42.259Z,103014.31
2018-12-25T02:41:11.664Z,103011.08
2018-12-25T02:43:41.097Z,102996.68
2018-12-25T02:46:11.142Z,102993.50
2018-12-25T02:48:41.133Z,102988.23
2018-12-25T02:51:11.017Z,102998.23
2018-12-25T02:53:41.065Z,102991.10
2018-12-25T02:56:11.229Z,102991.08
2018-12-25T02:58:41.101Z,102990.65
2018-12-25T03:01:11.132Z,102996.38
2018-12-25T03:03:41.323Z,102983.52
2018-12-25T03:06:11.137Z,102985.23
2018-12-25T03:08:41.064Z,102986.94
2018-12-25T03:11:11.184Z,102989.22
2018-12-25T03:16:29.595Z,102976.92
2018-12-25T03:18:59.039Z,102975.14
2018-12-25T03:21:28.429Z,102976.80
2018-12-25T03:26:39.198Z,102955.58
2018-12-25T03:29:08.711Z,102955.16
2018-12-25T03:31:38.089Z,102952.55
2018-12-25T03:34:07.492Z,102946.78
2018-12-25T03:39:36.015Z,102945.55
2018-12-25T03:44:46.724Z,102957.44
2018-12-25T03:47:16.180Z,102952.55
2018-12-25T03:49:45.611Z,102955.20
2018-12-25T03:52:15.024Z,102953.05
2018-12-25T03:54:44.525Z,102957.36
2018-12-25T03:57:13.923Z,102951.13
2018-12-25T03:59:43.322Z,102961.70
2018-12-25T04:02:12.742Z,102964.23
2018-12-25T04:04:42.102Z,102967.87
2018-12-25T04:07:30.469Z,102958.53
2018-12-25T04:09:59.871Z,102949.90
2018-12-25T04:12:48.140Z,102948.44
2018-12-25T04:15:17.524Z,102944.97
2018-12-25T04:17:46.898Z,102948.61
2018-12-25T04:20:19.915Z,102949.41
2018-12-25T04:22:47.519Z,102937.08
2018-12-25T04:25:16.904Z,102940.77
2018-12-25T04:27:46.354Z,102928.30
2018-12-25T04:30:15.756Z,102926.44
2018-12-25T04:32:45.148Z,102920.73
2018-12-25T04:35:14.685Z,102931.33
2018-12-25T04:37:44.120Z,102927.81
2018-12-25T04:43:01.919Z,102929.73
2018-12-25T04:45:31.294Z,102930.11
2018-12-25T04:48:00.697Z,102928.81
2018-12-25T04:50:30.264Z,102930.98
2018-12-25T04:52:59.659Z,102938.55
2018-12-25T04:55:29.005Z,102937.23
2018-12-25T04:57:58.477Z,102935.91
2018-12-25T05:00:27.881Z,102931.05
2018-12-25T05:02:57.265Z,102932.00
2018-12-25T05:05:26.763Z,102931.44
2018-12-25T05:07:56.143Z,102932.37
2018-12-25T05:10:25.544Z,102928.30
2018-12-25T05:12:55.012Z,102929.70
2018-12-25T05:18:12.884Z,102916.45
2018-12-25T05:20:42.308Z,102912.59
2018-12-25T05:23:11.696Z,102904.83
2018-12-25T05:25:41.409Z,102901.69
2018-12-25T05:28:11.215Z,102897.66
2018-12-25T05:30:41.902Z,102907.23
2018-12-25T05:33:11.411Z,102901.88
2018-12-25T05:35:41.195Z,102909.91
2018-12-25T05:38:11.245Z,102909.91
2018-12-25T05:40:41.480Z,102912.47
2018-12-25T05:43:11.200Z,102921.68
2018-12-25T05:45:41.224Z,102919.05
2018-12-25T05:48:11.341Z,102917.84
2018-12-25T05:56:11.261Z,102932.47
2018-12-25T05:58:41.297Z,102953.64
2018-12-25T06:01:11.270Z,102942.17
2018-12-25T06:03:41.231Z,102944.27
2018-12-25T06:06:11.585Z,102941.09
2018-12-25T06:08:42.740Z,102942.94
2018-12-25T06:11:12.400Z,102938.48
2018-12-25T06:13:41.919Z,102931.80
2018-12-25T06:16:11.303Z,102940.18
2018-12-25T06:18:41.206Z,102934.84
2018-12-25T06:21:30.242Z,102932.81
2018-12-25T06:23:59.628Z,102926.16
2018-12-25T06:26:29.013Z,102929.20
2018-12-25T06:31:50.391Z,102919.98
2018-12-25T06:34:19.796Z,102921.47
2018-12-25T06:36:49.229Z,102923.62
2018-12-25T06:39:18.734Z,102924.02
2018-12-25T06:41:48.288Z,102927.09
2018-12-25T06:47:06.150Z,102923.55
2018-12-25T06:49:35.611Z,102919.16
2018-12-25T06:52:05.015Z,102910.31
2018-12-25T06:54:34.543Z,102920.97
2018-12-25T06:57:03.957Z,102919.18
2018-12-25T06:59:33.389Z,102921.80
2018-12-25T07:02:02.933Z,102923.52
2018-12-25T07:04:32.310Z,102933.72
2018-12-25T07:07:01.722Z,102929.20
2018-12-25T07:09:31.225Z,102927.59
2018-12-25T07:12:00.692Z,102934.61
2018-12-25T07:14:30.082Z,102927.89
2018-12-25T07:16:59.603Z,102927.48
2018-12-25T07:19:29.001Z,102929.22
2018-12-25T07:21:58.368Z,102933.64
2018-12-25T07:24:27.993Z,102931.87
2018-12-25T07:26:57.373Z,102927.89
2018-12-25T07:29:26.992Z,102929.61
2018-12-25T07:31:56.558Z,102930.08
2018-12-25T07:34:25.933Z,102927.82
2018-12-25T07:36:55.338Z,102916.52
2018-12-25T07:39:25.018Z,102917.30
2018-12-25T07:41:54.411Z,102909.71
2018-12-25T07:44:23.812Z,102899.98
2018-12-25T07:49:34.561Z,102895.25
2018-12-25T07:52:04.102Z,102887.33
2018-12-25T07:54:33.511Z,102876.73
2018-12-25T07:57:02.946Z,102872.56
2018-12-25T07:59:32.401Z,102874.25
2018-12-25T08:02:01.796Z,102873.42
2018-12-25T08:04:31.227Z,102867.66
2018-12-25T08:07:00.779Z,102877.97
2018-12-25T08:09:30.211Z,102875.55
2018-12-25T08:11:59.586Z,102874.30
2018-12-25T08:14:29.246Z,102879.09
2018-12-25T08:16:58.615Z,102882.18
2018-12-25T08:19:28.003Z,102867.58
2018-12-25T08:21:57.528Z,102875.66
2018-12-25T08:24:27.083Z,102873.00
2018-12-25T08:26:56.485Z,102871.54
2018-12-25T08:32:26.123Z,102877.41
2018-12-25T08:34:55.657Z,102883.58
2018-12-25T08:37:25.050Z,102887.66
2018-12-25T08:39:54.420Z,102892.48
2018-12-25T08:42:23.964Z,102874.73
2018-12-25T08:44:53.371Z,102875.47
2018-12-25T08:47:22.789Z,102870.56
2018-12-25T08:50:03.816Z,102872.72
2018-12-25T08:52:33.219Z,102871.36
2018-12-25T08:55:02.721Z,102879.97
2018-12-25T08:57:32.215Z,102881.67
2018-12-25T09:00:01.611Z,102889.55
2018-12-25T09:02:30.992Z,102886.07
2018-12-25T09:05:00.510Z,102883.89
2018-12-25T09:07:29.917Z,102891.39
2018-12-25T09:09:59.303Z,102886.41
2018-12-25T09:12:47.799Z,102884.58
2018-12-25T09:15:17.195Z,102879.23
2018-12-25T09:17:46.614Z,102877.33
2018-12-25T09:20:16.171Z,102878.66
2018-12-25T09:22:45.642Z,102887.52
2018-12-25T09:25:34.017Z,102898.14
2018-12-25T09:28:15.204Z,102889.22
2018-12-25T09:30:44.617Z,102889.94
2018-12-25T09:33:14.144Z,102891.16
2018-12-25T09:36:02.408Z,102889.66
2018-12-25T09:38:50.783Z,102888.63
2018-12-25T09:41:20.204Z,102887.14
2018-12-25T09:43:49.656Z,102893.27
2018-12-25T09:46:19.142Z,102890.64
2018-12-25T09:48:48.534Z,102886.18
2018-12-25T09:51:20.087Z,102871.26
2018-12-25T09:53:49.375Z,102873.15
2018-12-25T09:56:18.764Z,102875.44
2018-12-25T09:58:48.196Z,102860.33
2018-12-25T10:01:36.671Z,102856.60
2018-12-25T10:04:06.070Z,102861.33
2018-12-25T10:06:35.497Z,102871.15
2018-12-25T10:09:24.012Z,102886.07
2018-12-25T10:11:53.378Z,102889.66
2018-12-25T10:14:22.759Z,102903.77
2018-12-25T10:16:52.212Z,102878.36
2018-12-25T10:19:21.581Z,102893.12
2018-12-25T10:21:50.987Z,102902.44
2018-12-25T10:24:20.508Z,102886.23
2018-12-25T10:27:08.826Z,102881.98
2018-12-25T10:32:19.537Z,102890.47
2018-12-25T10:34:48.997Z,102899.30
2018-12-25T10:37:18.514Z,102886.70
2018-12-25T10:39:47.864Z,102884.37
2018-12-25T10:42:17.390Z,102879.12
2018-12-25T10:44:46.801Z,102886.16
2018-12-25T10:47:16.231Z,102888.41
2018-12-25T10:49:45.766Z,102888.37
2018-12-25T10:52:15.285Z,102888.25
2018-12-25T10:54:44.695Z,102879.35
2018-12-25T10:59:55.405Z,102878.31
2018-12-25T11:02:24.983Z,102869.84
2018-12-25T11:04:54.391Z,102873.84
2018-12-25T11:07:23.755Z,102871.17
2018-12-25T11:12:41.818Z,102872.51
2018-12-25T11:17:52.911Z,102865.17
2018-12-25T11:20:22.417Z,102856.71
2018-12-25T11:22:51.811Z,102861.14
2018-12-25T11:25:21.184Z,102862.11
2018-12-25T11:30:31.906Z,102867.51
2018-12-25T11:33:01.380Z,102862.52
2018-12-25T11:35:30.783Z,102866.17
2018-12-25T11:38:00.202Z,102855.58
2018-12-25T11:40:29.634Z,102844.66
2018-12-25T11:42:59.009Z,102855.54
2018-12-25T11:45:28.415Z,102845.09
2018-12-25T11:47:57.961Z,102846.23
2018-12-25T11:50:27.352Z,102839.69
2018-12-25T11:55:45.252Z,102844.84
2018-12-25T11:58:14.658Z,102846.66
2018-12-25T12:00:44.046Z,102857.92
2018-12-25T12:03:13.561Z,102858.20
2018-12-25T12:05:42.966Z,102842.11
2018-12-25T12:08:12.417Z,102847.52
2018-12-25T12:10:42.002Z,102846.34
2018-12-25T12:13:11.687Z,102849.00
2018-12-25T12:15:41.777Z,102844.72
2018-12-25T12:18:11.846Z,102838.64
2018-12-25T12:23:50.108Z,102850.81
2018-12-25T12:29:07.903Z,102845.38
2018-12-25T12:31:37.310Z,102833.80
2018-12-25T12:34:06.702Z,102843.69
2018-12-25T12:36:36.226Z,102848.31
2018-12-25T12:39:07.611Z,102849.41
2018-12-25T12:41:36.978Z,102860.86
2018-12-25T12:44:06.439Z,102853.84
2018-12-25T12:46:35.822Z,102860.09
2018-12-25T12:49:05.259Z,102865.98
2018-12-25T12:54:16.008Z,102864.37
2018-12-25T12:56:45.541Z,102865.02
2018-12-25T12:59:15.000Z,102866.55
2018-12-25T13:01:44.403Z,102861.83
2018-12-25T13:04:13.970Z,102864.09
2018-12-25T13:06:43.335Z,102858.20
2018-12-25T13:09:31.734Z,102862.03
2018-12-25T13:12:01.130Z,102861.38
2018-12-25T13:14:30.516Z,102865.17
2018-12-25T13:17:00.043Z,102854.41
2018-12-25T13:19:29.508Z,102854.09
2018-12-25T13:21:58.836Z,102854.41
2018-12-25T13:24:28.325Z,102858.60
2018-12-25T13:26:57.728Z,102865.33
2018-12-25T13:29:27.102Z,102860.13
2018-12-25T13:34:37.850Z,102862.56
2018-12-25T13:37:07.365Z,102864.97
2018-12-25T13:39:36.753Z,102871.70
2018-12-25T13:42:06.257Z,102876.14
2018-12-25T13:44:35.779Z,102865.53
2018-12-25T13:47:05.193Z,102867.38
2018-12-25T13:49:53.729Z,102869.20
2018-12-25T13:52:23.196Z,102869.20
2018-12-25T13:54:52.560Z,102878.96
2018-12-25T13:57:22.012Z,102882.59
2018-12-25T13:59:51.575Z,102880.05
2018-12-25T14:02:21.023Z,102889.51
2018-12-25T14:07:31.742Z,102879.52
2018-12-25T14:10:01.193Z,102871.63
2018-12-25T14:12:49.628Z,102877.75
2018-12-25T14:15:38.057Z,102885.48
2018-12-25T14:18:07.450Z,102889.33
2018-12-25T14:20:36.946Z,102883.75
2018-12-25T14:23:11.145Z,102886.33
2018-12-25T14:25:37.588Z,102876.10
2018-12-25T14:28:06.950Z,102880.27
2018-12-25T14:30:36.634Z,102876.36
2018-12-25T14:33:06.008Z,102882.20
2018-12-25T14:35:35.373Z,102878.17
2018-12-25T14:40:50.077Z,102873.30
2018-12-25T14:43:19.532Z,102869.45
2018-12-25T14:45:48.903Z,102875.62
2018-12-25T14:48:18.295Z,102874.81
2018-12-25T14:50:47.831Z,102857.34
2018-12-25T14:53:19.912Z,102850.84
2018-12-25T14:55:48.350Z,102854.75
2018-12-25T14:58:17.773Z,102855.91
2018-12-25T15:00:47.209Z,102847.89
2018-12-25T15:03:16.712Z,102857.08
2018-12-25T15:05:46.445Z,102859.73
2018-12-25T15:08:15.838Z,102859.81
2018-12-25T15:13:45.584Z,102874.11
2018-12-25T15:16:15.140Z,102862.66
2018-12-25T15:18:44.567Z,102858.23
2018-12-25T15:21:14.072Z,102858.67
2018-12-25T15:26:24.785Z,102869.75
2018-12-25T15:31:35.517Z,102870.41
2018-12-25T15:34:05.233Z,102871.52
2018-12-25T15:36:34.686Z,102875.66
2018-12-25T15:44:47.347Z,102867.31
2018-12-25T15:47:16.954Z,102868.27
2018-12-25T15:49:46.368Z,102865.98
2018-12-25T15:55:04.171Z,102864.73
2018-12-25T15:57:33.569Z,102866.80
2018-12-25T16:05:32.839Z,102856.64
2018-12-25T16:08:02.367Z,102855.75
2018-12-25T16:10:31.778Z,102862.11
2018-12-25T16:13:01.180Z,102869.16
2018-12-25T16:18:12.062Z,102868.68
2018-12-25T16:20:42.280Z,102871.30
2018-12-25T16:23:12.025Z,102863.25
2018-12-25T16:25:42.006Z,102869.94
2018-12-25T16:28:12.159Z,102859.41
2018-12-25T16:30:42.048Z,102857.53
2018-12-25T16:33:12.002Z,102855.23
2018-12-25T16:35:42.109Z,102847.95
2018-12-25T16:38:11.989Z,102853.58
2018-12-25T16:40:42.004Z,102843.27
2018-12-25T16:43:12.077Z,102845.16
2018-12-25T16:45:42.045Z,102854.39
2018-12-25T16:48:12.094Z,102850.88
2018-12-25T16:50:42.114Z,102848.11
2018-12-25T16:53:12.036Z,102851.69
2018-12-25T16:56:01.395Z,102855.34
2018-12-25T16:58:42.674Z,102857.89
2018-12-25T17:01:12.099Z,102858.41
2018-12-25T17:03:42.138Z,102860.77
2018-12-25T17:06:12.187Z,102860.37
2018-12-25T17:08:42.028Z,102862.48
2018-12-25T17:11:12.135Z,102864.50
2018-12-25T17:13:41.987Z,102872.52
2018-12-25T17:16:12.109Z,102862.55
2018-12-25T17:18:42.175Z,102866.16
2018-12-25T17:21:12.085Z,102863.73
2018-12-25T17:23:42.089Z,102864.06
2018-12-25T17:26:12.194Z,102867.87
2018-12-25T17:28:53.331Z,102868.68
2018-12-25T17:31:22.927Z,102865.91
2018-12-25T17:33:52.344Z,102862.66
2018-12-25T17:36:21.764Z,102857.86
2018-12-25T17:38:51.382Z,102853.20
2018-12-25T17:41:20.930Z,102850.03
2018-12-25T17:43:50.301Z,102854.50
2018-12-25T17:46:19.843Z,102862.11
2018-12-25T17:48:49.239Z,102865.95
2018-12-25T17:51:18.651Z,102863.77
2018-12-25T17:53:48.097Z,102860.26
2018-12-25T17:56:17.505Z,102866.35
2018-12-25T17:58:46.939Z,102871.12
2018-12-25T18:01:16.465Z,102869.53
2018-12-25T18:03:45.903Z,102871.30
2018-12-25T18:06:15.322Z,102868.72
2018-12-25T18:08:44.979Z,102875.03
2018-12-25T18:11:16.363Z,102875.03
2018-12-25T18:13:45.784Z,102879.53
2018-12-25T18:18:56.574Z,102881.89
2018-12-25T18:24:26.291Z,102881.23
2018-12-25T18:26:55.803Z,102882.30
2018-12-25T18:29:44.215Z,102876.98
2018-12-25T18:32:13.797Z,102880.22
2018-12-25T18:35:02.208Z,102868.30
2018-12-25T18:40:31.961Z,102871.56
2018-12-25T18:43:01.454Z,102874.30
2018-12-25T18:45:30.823Z,102874.67
2018-12-25T18:48:00.247Z,102879.09
2018-12-25T18:50:29.758Z,102883.12
2018-12-25T18:55:47.571Z,102871.50
2018-12-25T18:58:17.006Z,102871.36
2018-12-25T19:00:46.459Z,102863.31
2018-12-25T19:03:15.881Z,102862.16
2018-12-25T19:06:04.145Z,102874.36
2018-12-25T19:11:15.156Z,102859.58
2018-12-25T19:13:44.657Z,102862.53
2018-12-25T19:16:14.110Z,102873.13
2018-12-25T19:18:43.529Z,102871.22
2018-12-25T19:21:13.016Z,102860.99
2018-12-25T19:24:01.778Z,102860.08
2018-12-25T19:26:31.433Z,102862.36
2018-12-25T19:29:00.833Z,102867.67
2018-12-25T19:31:30.314Z,102859.40
2018-12-25T19:33:59.892Z,102856.41
2018-12-25T19:36:29.265Z,102855.67
2018-12-25T19:38:58.662Z,102859.22
2018-12-25T19:44:16.617Z,102854.97
2018-12-25T19:49:27.391Z,102848.52
2018-12-25T19:54:44.523Z,102854.91
2018-12-25T19:57:09.975Z,102849.92
2018-12-25T19:59:40.623Z,102852.24
2018-12-25T20:02:10.112Z,102846.38
2018-12-25T20:05:17.625Z,102848.59
2018-12-25T20:08:25.036Z,102847.70
2018-12-25T20:11:32.437Z,102848.77
2018-12-25T20:14:13.363Z,102841.02
2018-12-25T20:17:20.898Z,102841.02
2018-12-25T20:20:28.230Z,102840.91
2018-12-25T20:23:35.964Z,102839.14
2018-12-25T20:26:43.330Z,102831.42
2018-12-25T20:29:50.849Z,102846.11
2018-12-25T20:32:43.677Z,102855.52
2018-12-25T20:35:51.423Z,102843.97
2018-12-25T20:38:56.555Z,102843.12
2018-12-25T20:42:03.935Z,102843.59
2018-12-25T20:45:11.270Z,102848.67
2018-12-25T20:48:18.779Z,102847.34
2018-12-25T20:51:26.120Z,102850.48
2018-12-25T20:54:33.696Z,102842.03
2018-12-25T20:57:41.085Z,102847.86
2018-12-25T21:00:48.556Z,102844.75
2018-12-25T21:07:06.667Z,102849.05
2018-12-25T21:10:15.907Z,102839.71
2018-12-25T21:13:23.380Z,102840.13
2018-12-25T21:16:30.773Z,102845.09
2018-12-25T21:19:38.292Z,102845.77
2018-12-25T21:22:45.687Z,102838.72
2018-12-25T21:25:53.181Z,102832.29
2018-12-25T21:28:20.798Z,102839.30
2018-12-25T21:30:50.198Z,102829.97
2018-12-25T21:33:19.741Z,102827.65
2018-12-25T21:36:08.012Z,102829.31
2018-12-25T21:39:16.727Z,102829.79
2018-12-25T21:41:46.132Z,102839.27
2018-12-25T21:47:56.519Z,102837.67
2018-12-25T21:50:26.051Z,102830.48
2018-12-25T21:53:14.610Z,102829.79
2018-12-25T21:56:15.164Z,102831.13
2018-12-25T21:58:44.852Z,102834.30
2018-12-25T22:01:14.506Z,102836.47
2018-12-25T22:03:44.013Z,102837.91
2018-12-25T22:06:13.592Z,102840.05
2018-12-25T22:08:42.994Z,102838.17
2018-12-25T22:11:12.398Z,102821.96
2018-12-25T22:13:45.362Z,102833.06
2018-12-25T22:16:14.888Z,102831.41
2018-12-25T22:18:44.292Z,102828.12
2018-12-25T22:21:13.966Z,102820.53
2018-12-25T22:26:33.775Z,102821.34
2018-12-25T22:29:03.485Z,102813.22
2018-12-25T22:31:32.867Z,102815.88
2018-12-25T22:34:02.485Z,102821.59
2018-12-25T22:42:21.995Z,102812.11
2018-12-25T22:44:51.585Z,102812.44
2018-12-25T22:47:20.994Z,102812.96
2018-12-25T22:52:38.836Z,102817.02
2018-12-25T22:55:09.761Z,102819.53
2018-12-25T22:57:39.150Z,102811.77
2018-12-25T23:00:11.062Z,102814.73
2018-12-25T23:02:59.375Z,102807.27
2018-12-25T23:05:28.841Z,102805.34
2018-12-25T23:08:00.320Z,102803.84
2018-12-25T23:10:29.755Z,102808.09
2018-12-25T23:12:59.264Z,102809.05
2018-12-25T23:18:17.061Z,102802.17
2018-12-25T23:20:46.513Z,102809.56
2018-12-25T23:23:16.072Z,102806.60
2018-12-25T23:25:45.624Z,102802.14
2018-12-25T23:28:15.091Z,102809.33
2018-12-25T23:30:44.504Z,102800.41
2018-12-25T23:33:14.037Z,102804.80
2018-12-25T23:35:43.436Z,102804.35
2018-12-25T23:38:12.830Z,102798.19
2018-12-25T23:40:42.678Z,102806.81
2018-12-25T23:43:12.751Z,102797.44
2018-12-25T23:45:42.549Z,102796.37
2018-12-25T23:48:12.481Z,102795.13
2018-12-25T23:50:42.454Z,102788.59
2018-12-25T23:53:12.480Z,102785.05
2018-12-25T23:55:42.727Z,102783.27
2018-12-25T23:58:12.645Z,102781.43
